createdAt,value
2022-11-23T00:02:29.812Z,87.02
2022-11-23T00:05:00.696Z,86.97
2022-11-23T00:07:31.827Z,87.01
2022-11-23T00:10:02.468Z,86.74
2022-11-23T00:12:32.829Z,86.84
2022-11-23T00:15:04.194Z,86.55
2022-11-23T00:17:34.978Z,86.50
2022-11-23T00:20:06.883Z,86.32
2022-11-23T00:22:37.336Z,86.41
2022-11-23T00:25:09.321Z,86.46
2022-11-23T00:27:39.931Z,86.49
2022-11-23T00:30:12.509Z,86.38
2022-11-23T00:32:43.591Z,86.54
2022-11-23T00:35:14.307Z,86.48
2022-11-23T00:37:45.296Z,86.60
2022-11-23T00:40:16.994Z,86.55
2022-11-23T00:42:47.619Z,86.70
2022-11-23T00:45:18.707Z,86.68
2022-11-23T00:47:49.101Z,86.87
2022-11-23T00:50:19.886Z,86.58
2022-11-23T00:52:50.597Z,86.81
2022-11-23T00:55:21.413Z,87.05
2022-11-23T00:57:52.132Z,86.91
2022-11-23T01:00:23.173Z,87.36
2022-11-23T01:02:54.236Z,87.12
2022-11-23T01:05:24.697Z,87.20
2022-11-23T01:07:55.486Z,87.17
2022-11-23T01:10:25.816Z,87.12
2022-11-23T01:12:56.428Z,87.53
2022-11-23T01:15:27.178Z,87.19
2022-11-23T01:17:57.849Z,87.29
2022-11-23T01:20:28.285Z,87.20
2022-11-23T01:22:59.109Z,87.41
2022-11-23T01:25:30.123Z,87.34
2022-11-23T01:28:00.449Z,87.25
2022-11-23T01:30:31.473Z,87.42
2022-11-23T01:33:02.152Z,87.26
2022-11-23T01:35:32.647Z,87.39
2022-11-23T01:38:03.496Z,87.34
2022-11-23T01:40:40.142Z,87.41
2022-11-23T01:43:17.766Z,87.32
2022-11-23T01:45:58.992Z,87.36
2022-11-23T01:48:33.355Z,87.49
2022-11-23T01:51:07.472Z,87.40
2022-11-23T01:53:39.836Z,87.46
2022-11-23T01:56:14.078Z,87.61
2022-11-23T01:58:51.081Z,88.02
2022-11-23T02:01:21.796Z,87.70
2022-11-23T02:03:55.976Z,88.12
2022-11-23T02:06:26.507Z,88.31
2022-11-23T02:08:57.359Z,88.05
2022-11-23T02:11:27.778Z,88.02
2022-11-23T02:14:00.253Z,88.48
2022-11-23T02:16:31.197Z,88.40
2022-11-23T02:19:02.228Z,88.28
2022-11-23T02:21:32.604Z,88.25
2022-11-23T02:24:08.964Z,88.60
2022-11-23T02:26:39.696Z,88.35
2022-11-23T02:29:15.110Z,88.32
2022-11-23T02:31:45.486Z,88.43
2022-11-23T02:34:16.170Z,88.74
2022-11-23T02:36:48.067Z,88.50
2022-11-23T02:39:23.232Z,88.26
2022-11-23T02:41:56.158Z,88.44
2022-11-23T02:44:35.521Z,88.37
2022-11-23T02:47:08.013Z,88.05
2022-11-23T02:49:40.365Z,87.85
2022-11-23T02:52:11.265Z,88.06
2022-11-23T02:54:41.772Z,87.90
2022-11-23T02:57:12.365Z,87.78
2022-11-23T02:59:43.284Z,87.86
2022-11-23T03:02:13.885Z,88.17
2022-11-23T03:04:44.358Z,88.40
2022-11-23T03:07:14.752Z,88.55
2022-11-23T03:09:45.207Z,88.76
2022-11-23T03:12:16.495Z,88.84
2022-11-23T03:14:46.891Z,89.16
2022-11-23T03:17:17.614Z,89.05
2022-11-23T03:19:48.346Z,89.13
2022-11-23T03:22:18.710Z,89.02
2022-11-23T03:24:49.782Z,88.87
2022-11-23T03:27:20.142Z,88.68
2022-11-23T03:29:51.066Z,88.91
2022-11-23T03:32:21.408Z,89.01
2022-11-23T03:34:52.563Z,89.18
2022-11-23T03:37:24.279Z,88.99
2022-11-23T03:39:54.625Z,89.37
2022-11-23T03:42:25.409Z,89.18
2022-11-23T03:44:55.809Z,89.16
2022-11-23T03:47:26.162Z,89.18
2022-11-23T03:49:56.801Z,89.22
2022-11-23T03:52:27.950Z,88.90
2022-11-23T03:54:58.291Z,89.07
2022-11-23T03:57:28.635Z,89.02
2022-11-23T03:59:59.538Z,89.11
2022-11-23T04:02:30.203Z,89.48
2022-11-23T04:05:01.370Z,89.46
2022-11-23T04:07:31.778Z,89.35
2022-11-23T04:10:02.811Z,89.30
2022-11-23T04:12:33.506Z,89.38
2022-11-23T04:15:04.400Z,89.27
2022-11-23T04:17:35.088Z,89.49
2022-11-23T04:20:07.480Z,89.52
2022-11-23T04:22:38.504Z,89.27
2022-11-23T04:25:10.314Z,89.20
2022-11-23T04:27:40.718Z,89.37
2022-11-23T04:30:12.950Z,89.30
2022-11-23T04:32:45.551Z,89.25
2022-11-23T04:35:16.272Z,89.15
2022-11-23T04:37:46.992Z,89.41
2022-11-23T04:40:18.193Z,89.15
2022-11-23T04:42:48.879Z,89.16
2022-11-23T04:45:19.456Z,89.26
2022-11-23T04:47:50.333Z,89.20
2022-11-23T04:50:21.610Z,89.30
2022-11-23T04:52:52.058Z,89.40
2022-11-23T04:55:23.082Z,89.24
2022-11-23T04:57:53.770Z,89.30
2022-11-23T05:00:24.994Z,89.27
2022-11-23T05:02:55.396Z,89.27
2022-11-23T05:05:25.878Z,89.16
2022-11-23T05:07:56.449Z,89.13
2022-11-23T05:10:27.455Z,89.35
2022-11-23T05:12:57.815Z,89.21
2022-11-23T05:15:28.540Z,89.01
2022-11-23T05:18:06.302Z,89.22
2022-11-23T05:20:37.057Z,89.24
2022-11-23T05:23:08.237Z,89.18
2022-11-23T05:25:38.975Z,89.25
2022-11-23T05:28:37.956Z,89.13
2022-11-23T05:31:01.651Z,89.04
2022-11-23T05:33:33.101Z,89.19
2022-11-23T05:36:03.976Z,89.08
2022-11-23T05:38:34.714Z,89.01
2022-11-23T05:41:06.270Z,89.08
2022-11-23T05:43:36.678Z,88.97
2022-11-23T05:46:07.295Z,88.77
2022-11-23T05:48:37.699Z,88.82
2022-11-23T05:51:08.300Z,88.91
2022-11-23T05:53:38.700Z,88.75
2022-11-23T05:56:09.752Z,88.78
2022-11-23T05:58:41.034Z,88.70
2022-11-23T06:01:11.851Z,88.56
2022-11-23T06:03:42.489Z,88.59
2022-11-23T06:06:12.950Z,88.43
2022-11-23T06:08:47.938Z,88.45
2022-11-23T06:11:19.528Z,88.57
2022-11-23T06:13:50.676Z,88.61
2022-11-23T06:16:21.075Z,88.47
2022-11-23T06:18:51.522Z,88.89
2022-11-23T06:21:22.136Z,88.58
2022-11-23T06:23:52.681Z,88.43
2022-11-23T06:26:23.348Z,88.42
2022-11-23T06:28:54.188Z,88.54
2022-11-23T06:31:25.232Z,88.64
2022-11-23T06:33:55.929Z,88.35
2022-11-23T06:36:26.385Z,88.49
2022-11-23T06:38:57.386Z,88.54
2022-11-23T06:41:32.238Z,88.37
2022-11-23T06:44:03.572Z,88.48
2022-11-23T06:46:34.382Z,88.56
2022-11-23T06:49:04.780Z,88.39
2022-11-23T06:51:35.629Z,88.35
2022-11-23T06:54:06.379Z,88.55
2022-11-23T06:56:37.114Z,88.30
2022-11-23T06:59:07.754Z,88.52
2022-11-23T07:01:38.715Z,88.57
2022-11-23T07:04:09.738Z,88.56
2022-11-23T07:06:42.925Z,88.55
2022-11-23T07:09:13.678Z,88.57
2022-11-23T07:11:44.377Z,88.48
2022-11-23T07:14:15.255Z,88.57
2022-11-23T07:16:46.053Z,88.58
2022-11-23T07:19:16.800Z,88.64
2022-11-23T07:21:47.602Z,88.61
2022-11-23T07:24:18.011Z,88.56
2022-11-23T07:26:49.126Z,88.74
2022-11-23T07:29:19.861Z,88.73
2022-11-23T07:31:50.259Z,88.70
2022-11-23T07:34:21.181Z,88.69
2022-11-23T07:36:52.214Z,88.73
2022-11-23T07:39:42.010Z,88.63
2022-11-23T07:42:32.399Z,88.61
2022-11-23T07:45:05.868Z,88.71
2022-11-23T07:47:36.878Z,88.60
2022-11-23T07:50:09.884Z,88.72
2022-11-23T07:52:42.014Z,88.60
2022-11-23T07:55:12.997Z,88.55
2022-11-23T07:57:43.805Z,88.69
2022-11-23T08:00:16.391Z,88.48
2022-11-23T08:03:11.388Z,88.51
2022-11-23T08:05:37.843Z,88.24
2022-11-23T08:08:08.704Z,88.28
2022-11-23T08:10:44.425Z,88.27
2022-11-23T08:13:16.653Z,88.22
2022-11-23T08:15:53.289Z,88.37
2022-11-23T08:18:25.344Z,88.57
2022-11-23T08:20:56.495Z,88.61
2022-11-23T08:23:26.865Z,88.66
2022-11-23T08:25:57.472Z,88.68
2022-11-23T08:28:27.809Z,88.67
2022-11-23T08:30:58.549Z,88.87
2022-11-23T08:33:29.177Z,88.98
2022-11-23T08:36:04.359Z,88.95
2022-11-23T08:38:35.515Z,88.95
2022-11-23T08:41:06.602Z,88.84
2022-11-23T08:43:37.029Z,88.94
2022-11-23T08:46:11.097Z,88.94
2022-11-23T08:48:42.044Z,88.89
2022-11-23T08:51:12.818Z,88.89
2022-11-23T08:53:43.371Z,88.76
2022-11-23T08:56:13.792Z,88.70
2022-11-23T08:58:44.385Z,88.77
2022-11-23T09:01:18.097Z,88.81
2022-11-23T09:03:48.728Z,88.78
2022-11-23T09:06:20.507Z,88.71
2022-11-23T09:08:51.632Z,88.72
2022-11-23T09:11:22.692Z,88.82
2022-11-23T09:13:54.159Z,88.75
2022-11-23T09:16:25.933Z,88.83
2022-11-23T09:18:59.698Z,88.93
2022-11-23T09:21:33.530Z,89.03
2022-11-23T09:24:05.246Z,89.54
2022-11-23T09:26:37.645Z,89.69
2022-11-23T09:29:09.108Z,89.76
2022-11-23T09:31:40.032Z,89.99
2022-11-23T09:34:12.279Z,89.99
2022-11-23T09:36:43.259Z,90.38
2022-11-23T09:39:13.917Z,90.37
2022-11-23T09:42:22.406Z,90.61
2022-11-23T09:45:08.751Z,90.71
2022-11-23T09:47:56.071Z,91.27
2022-11-23T09:50:34.551Z,91.54
2022-11-23T09:53:13.324Z,91.93
2022-11-23T09:55:45.927Z,92.16
2022-11-23T09:58:19.716Z,92.38
2022-11-23T10:00:55.183Z,92.69
2022-11-23T10:03:25.897Z,92.76
2022-11-23T10:06:06.376Z,92.85
2022-11-23T10:08:48.062Z,92.74
2022-11-23T10:11:44.973Z,92.61
2022-11-23T10:14:32.503Z,92.58
2022-11-23T10:17:04.506Z,92.48
2022-11-23T10:19:49.466Z,92.33
2022-11-23T10:22:23.550Z,92.03
2022-11-23T10:24:55.202Z,92.07
2022-11-23T10:27:26.840Z,91.94
2022-11-23T10:29:59.787Z,91.79
2022-11-23T10:32:37.714Z,91.53
2022-11-23T10:35:08.438Z,91.22
2022-11-23T10:37:41.479Z,91.17
2022-11-23T10:40:20.193Z,90.84
2022-11-23T10:42:55.963Z,90.47
2022-11-23T10:45:28.304Z,90.27
2022-11-23T10:48:00.256Z,89.73
2022-11-23T10:50:34.795Z,89.22
2022-11-23T10:53:23.591Z,88.84
2022-11-23T10:55:57.922Z,88.54
2022-11-23T10:58:31.273Z,88.18
2022-11-23T11:01:06.718Z,87.96
2022-11-23T11:03:37.375Z,87.26
2022-11-23T11:06:09.907Z,86.58
2022-11-23T11:08:52.730Z,86.29
2022-11-23T11:11:28.801Z,85.79
2022-11-23T11:14:07.788Z,85.32
2022-11-23T11:16:39.031Z,84.79
2022-11-23T11:22:26.375Z,84.13
2022-11-23T11:24:57.888Z,84.33
2022-11-23T11:27:30.168Z,84.60
2022-11-23T11:30:07.693Z,84.63
2022-11-23T11:32:50.077Z,84.84
2022-11-23T11:35:26.954Z,84.85
2022-11-23T11:38:03.628Z,84.93
2022-11-23T11:40:38.258Z,84.68
2022-11-23T11:43:15.223Z,84.31
2022-11-23T11:46:13.198Z,84.54
2022-11-23T11:48:41.370Z,84.36
2022-11-23T11:51:18.892Z,83.99
2022-11-23T11:53:57.599Z,83.97
2022-11-23T11:56:35.747Z,83.77
2022-11-23T11:59:15.546Z,83.54
2022-11-23T12:01:54.594Z,83.59
2022-11-23T12:04:32.607Z,83.48
2022-11-23T12:07:13.467Z,83.22
2022-11-23T12:09:48.320Z,83.19
2022-11-23T12:12:26.611Z,82.98
2022-11-23T12:15:00.447Z,82.88
2022-11-23T12:17:56.631Z,82.94
2022-11-23T12:20:33.937Z,82.60
2022-11-23T12:23:17.666Z,82.39
2022-11-23T12:25:57.932Z,82.54
2022-11-23T12:28:48.930Z,82.64
2022-11-23T12:31:30.641Z,82.62
2022-11-23T12:34:17.015Z,82.25
2022-11-23T12:37:09.112Z,82.27
2022-11-23T12:40:15.217Z,82.12
2022-11-23T12:42:49.660Z,82.06
2022-11-23T12:45:56.667Z,82.07
2022-11-23T12:48:38.613Z,82.01
2022-11-23T12:51:28.519Z,81.60
2022-11-23T12:54:14.103Z,81.40
2022-11-23T12:56:58.751Z,80.97
2022-11-23T12:59:42.456Z,80.56
2022-11-23T13:02:31.721Z,80.38
2022-11-23T13:05:21.509Z,80.24
2022-11-23T13:08:24.883Z,79.86
2022-11-23T13:11:11.576Z,79.72
2022-11-23T13:14:03.729Z,79.35
2022-11-23T13:16:57.923Z,79.07
2022-11-23T13:19:43.126Z,78.95
2022-11-23T13:22:18.985Z,78.97
2022-11-23T13:25:15.819Z,78.90
2022-11-23T13:27:56.490Z,78.82
2022-11-23T13:31:07.707Z,78.61
2022-11-23T13:33:38.478Z,78.65
2022-11-23T13:36:18.516Z,78.70
2022-11-23T13:38:51.017Z,78.37
2022-11-23T13:41:55.415Z,78.45
2022-11-23T13:44:28.425Z,78.43
2022-11-23T13:47:21.730Z,77.98
2022-11-23T13:49:53.645Z,77.73
2022-11-23T13:52:32.411Z,77.36
2022-11-23T13:55:23.441Z,77.33
2022-11-23T13:58:36.617Z,77.47
2022-11-23T14:01:07.833Z,77.37
2022-11-23T14:03:55.696Z,77.22
2022-11-23T14:06:42.842Z,77.46
2022-11-23T14:09:20.658Z,77.45
2022-11-23T14:11:56.911Z,77.14
2022-11-23T14:14:32.422Z,77.27
2022-11-23T14:17:21.502Z,77.16
2022-11-23T14:20:18.666Z,77.32
2022-11-23T14:23:04.450Z,77.36
2022-11-23T14:25:51.794Z,77.59
2022-11-23T14:28:35.320Z,77.78
2022-11-23T14:31:22.833Z,78.19
2022-11-23T14:34:00.307Z,78.35
2022-11-23T14:36:47.266Z,78.55
2022-11-23T14:39:42.682Z,78.49
2022-11-23T14:42:20.692Z,78.50
2022-11-23T14:44:51.881Z,78.71
2022-11-23T14:47:30.191Z,78.65
2022-11-23T14:50:01.022Z,78.68
2022-11-23T14:52:34.163Z,78.76
2022-11-23T14:55:07.546Z,78.90
2022-11-23T14:57:44.439Z,78.81
2022-11-23T15:00:29.742Z,78.74
2022-11-23T15:03:34.480Z,78.94
2022-11-23T15:06:08.949Z,78.98
2022-11-23T15:08:48.165Z,78.97
2022-11-23T15:11:24.134Z,79.05
2022-11-23T15:13:58.372Z,79.17
2022-11-23T15:16:29.488Z,79.27
2022-11-23T15:19:00.006Z,79.22
2022-11-23T15:21:31.582Z,79.07
2022-11-23T15:24:02.944Z,79.16
2022-11-23T15:26:48.049Z,79.08
2022-11-23T15:29:36.795Z,79.38
2022-11-23T15:32:33.808Z,79.41
2022-11-23T15:35:07.794Z,79.48
2022-11-23T15:37:44.897Z,79.56
2022-11-23T15:40:19.227Z,79.73
2022-11-23T15:42:52.111Z,79.81
2022-11-23T15:45:58.407Z,79.75
2022-11-23T15:48:33.535Z,80.10
2022-11-23T15:51:05.956Z,80.33
2022-11-23T15:53:48.666Z,80.44
2022-11-23T15:56:25.233Z,80.46
2022-11-23T15:58:56.748Z,80.44
2022-11-23T16:01:28.332Z,80.53
2022-11-23T16:04:03.480Z,80.56
2022-11-23T16:06:42.104Z,80.60
2022-11-23T16:09:51.257Z,80.79
2022-11-23T16:12:32.297Z,80.85
2022-11-23T16:15:33.430Z,81.02
2022-11-23T16:18:05.806Z,81.03
2022-11-23T16:20:36.665Z,81.14
2022-11-23T16:23:07.530Z,81.29
2022-11-23T16:25:39.074Z,81.52
2022-11-23T16:28:18.849Z,81.52
2022-11-23T16:30:49.377Z,81.52
2022-11-23T16:33:21.852Z,81.76
2022-11-23T16:35:53.028Z,81.72
2022-11-23T16:38:23.907Z,81.92
2022-11-23T16:40:56.310Z,81.83
2022-11-23T16:43:27.191Z,81.92
2022-11-23T16:45:58.093Z,82.03
2022-11-23T16:48:41.924Z,82.13
2022-11-23T16:51:15.120Z,82.15
2022-11-23T16:54:12.457Z,82.25
2022-11-23T16:56:38.781Z,82.43
2022-11-23T16:59:15.645Z,82.48
2022-11-23T17:01:51.337Z,82.60
2022-11-23T17:04:25.677Z,82.70
2022-11-23T17:06:56.203Z,82.74
2022-11-23T17:09:27.018Z,82.87
2022-11-23T17:11:57.823Z,83.02
2022-11-23T17:14:30.168Z,83.03
2022-11-23T17:17:02.525Z,83.12
2022-11-23T17:19:33.254Z,83.18
2022-11-23T17:22:03.859Z,83.25
2022-11-23T17:24:34.713Z,83.33
2022-11-23T17:27:05.565Z,83.36
2022-11-23T17:29:41.510Z,83.35
2022-11-23T17:32:15.329Z,83.51
2022-11-23T17:34:45.858Z,83.49
2022-11-23T17:37:20.949Z,83.43
2022-11-23T17:39:52.012Z,83.58
2022-11-23T17:42:23.161Z,83.66
2022-11-23T17:44:54.115Z,83.55
2022-11-23T17:47:28.813Z,83.67
2022-11-23T17:49:59.753Z,83.73
2022-11-23T17:52:30.359Z,83.81
2022-11-23T17:55:01.364Z,83.95
2022-11-23T17:57:31.930Z,84.09
2022-11-23T18:00:03.959Z,84.04
2022-11-23T18:02:34.558Z,84.09
2022-11-23T18:05:05.633Z,84.12
2022-11-23T18:07:36.830Z,84.12
2022-11-23T18:10:08.998Z,84.24
2022-11-23T18:12:40.042Z,84.17
2022-11-23T18:15:11.869Z,84.20
2022-11-23T18:17:42.838Z,84.45
2022-11-23T18:20:15.534Z,84.47
2022-11-23T18:22:46.052Z,84.44
2022-11-23T18:25:16.615Z,84.57
2022-11-23T18:27:47.007Z,84.55
2022-11-23T18:30:19.269Z,84.59
2022-11-23T18:32:50.018Z,84.59
2022-11-23T18:35:21.011Z,84.64
2022-11-23T18:37:51.720Z,84.62
2022-11-23T18:40:22.384Z,84.73
2022-11-23T18:42:52.846Z,84.78
2022-11-23T18:45:24.046Z,84.87
2022-11-23T18:47:55.030Z,84.73
2022-11-23T18:50:25.452Z,84.84
2022-11-23T18:52:56.432Z,84.95
2022-11-23T18:55:26.933Z,85.12
2022-11-23T18:57:57.854Z,84.96
2022-11-23T19:00:29.472Z,85.07
2022-11-23T19:03:02.210Z,85.14
2022-11-23T19:05:35.068Z,85.32
2022-11-23T19:08:09.468Z,85.11
2022-11-23T19:10:40.777Z,84.86
2022-11-23T19:13:12.102Z,84.72
2022-11-23T19:15:43.367Z,84.60
2022-11-23T19:18:13.912Z,84.48
2022-11-23T19:20:44.621Z,84.40
2022-11-23T19:23:15.545Z,84.34
2022-11-23T19:25:46.661Z,84.23
2022-11-23T19:28:17.377Z,84.29
2022-11-23T19:30:48.080Z,84.56
2022-11-23T19:33:18.852Z,84.64
2022-11-23T19:35:49.488Z,84.78
2022-11-23T19:38:19.853Z,84.73
2022-11-23T19:40:57.288Z,84.76
2022-11-23T19:43:28.044Z,84.60
2022-11-23T19:45:59.075Z,84.46
2022-11-23T19:48:30.083Z,84.41
2022-11-23T19:51:02.887Z,83.94
2022-11-23T19:53:35.356Z,84.12
2022-11-23T19:56:08.131Z,83.93
2022-11-23T19:58:38.778Z,83.82
2022-11-23T20:01:11.756Z,84.12
2022-11-23T20:03:44.916Z,84.47
2022-11-23T20:06:17.774Z,84.38
2022-11-23T20:08:48.811Z,84.52
2022-11-23T20:11:19.734Z,85.03
2022-11-23T20:13:50.518Z,84.89
2022-11-23T20:16:21.959Z,85.21
2022-11-23T20:18:58.905Z,85.33
2022-11-23T20:21:30.590Z,85.17
2022-11-23T20:24:05.123Z,85.68
2022-11-23T20:26:37.142Z,85.52
2022-11-23T20:29:09.178Z,85.57
2022-11-23T20:31:40.081Z,85.52
2022-11-23T20:34:15.353Z,85.77
2022-11-23T20:36:47.704Z,85.77
2022-11-23T20:39:18.838Z,85.70
2022-11-23T20:41:49.956Z,85.71
2022-11-23T20:44:21.254Z,85.91
2022-11-23T20:47:07.336Z,85.91
2022-11-23T20:49:37.845Z,85.85
2022-11-23T20:52:08.631Z,85.97
2022-11-23T20:54:39.069Z,85.78
2022-11-23T20:57:09.827Z,86.24
2022-11-23T20:59:41.057Z,85.75
2022-11-23T21:02:12.391Z,85.87
2022-11-23T21:04:43.610Z,86.00
2022-11-23T21:07:14.033Z,86.06
2022-11-23T21:09:44.845Z,85.99
2022-11-23T21:12:33.107Z,86.09
2022-11-23T21:15:03.698Z,86.21
2022-11-23T21:17:34.195Z,86.49
2022-11-23T21:20:05.419Z,86.57
2022-11-23T21:22:36.038Z,86.51
2022-11-23T21:25:07.347Z,86.62
2022-11-23T21:27:38.596Z,86.35
2022-11-23T21:30:11.913Z,86.36
2022-11-23T21:32:43.418Z,86.25
2022-11-23T21:35:14.124Z,86.47
2022-11-23T21:37:45.471Z,86.48
2022-11-23T21:40:16.874Z,86.43
2022-11-23T21:42:48.057Z,86.17
2022-11-23T21:45:19.165Z,86.14
2022-11-23T21:47:50.550Z,86.21
2022-11-23T21:50:20.938Z,86.13
2022-11-23T21:52:51.542Z,85.90
2022-11-23T21:55:21.905Z,85.98
2022-11-23T21:57:52.345Z,85.97
2022-11-23T22:00:28.440Z,85.71
2022-11-23T22:03:01.836Z,85.75
2022-11-23T22:05:32.620Z,86.07
2022-11-23T22:08:28.183Z,85.97
2022-11-23T22:10:54.734Z,85.87
2022-11-23T22:13:25.958Z,85.91
2022-11-23T22:15:57.319Z,86.03
2022-11-23T22:18:27.731Z,85.80
2022-11-23T22:21:05.794Z,85.84
2022-11-23T22:23:34.908Z,85.76
2022-11-23T22:26:04.017Z,85.85
2022-11-23T22:28:33.842Z,85.79
2022-11-23T22:31:03.074Z,85.67
2022-11-23T22:33:32.271Z,85.66
2022-11-23T22:36:01.979Z,85.70
2022-11-23T22:38:32.582Z,85.70
2022-11-23T22:41:02.612Z,85.56
2022-11-23T22:43:31.454Z,85.58
2022-11-23T22:46:05.589Z,85.76
2022-11-23T22:48:36.566Z,85.50
2022-11-23T22:51:05.845Z,85.55
2022-11-23T22:53:35.123Z,85.41
2022-11-23T22:56:04.883Z,85.36
2022-11-23T22:58:33.990Z,85.48
2022-11-23T23:01:07.288Z,85.51
2022-11-23T23:03:36.268Z,85.64
2022-11-23T23:06:06.200Z,85.40
2022-11-23T23:08:35.522Z,85.39
2022-11-23T23:11:08.277Z,85.46
2022-11-23T23:13:37.149Z,85.45
2022-11-23T23:16:07.129Z,85.37
2022-11-23T23:18:36.056Z,85.51
2022-11-23T23:21:06.768Z,85.43
2022-11-23T23:23:36.135Z,85.43
2022-11-23T23:26:06.185Z,85.35
2022-11-23T23:28:35.335Z,85.24
2022-11-23T23:31:05.563Z,85.28
2022-11-23T23:33:34.923Z,85.31
2022-11-23T23:36:06.109Z,85.38
2022-11-23T23:38:35.392Z,85.43
2022-11-23T23:41:05.323Z,85.51
2022-11-23T23:43:34.751Z,85.54
2022-11-23T23:46:05.302Z,85.61
2022-11-23T23:48:34.854Z,85.86
2022-11-23T23:51:07.355Z,85.78
2022-11-23T23:53:36.631Z,85.76
2022-11-23T23:56:07.464Z,85.92
2022-11-23T23:58:36.373Z,85.97
